createdAt,value
2019-01-06T00:01:32.912Z,61.70
2019-01-06T00:04:26.575Z,62.30
2019-01-06T00:07:11.914Z,61.80
2019-01-06T00:09:59.599Z,62.10
2019-01-06T00:12:40.352Z,61.50
2019-01-06T00:15:28.770Z,62.10
2019-01-06T00:18:11.783Z,65.40
2019-01-06T00:20:57.759Z,62.70
2019-01-06T00:23:56.134Z,62.70
2019-01-06T00:26:42.606Z,62.40
2019-01-06T00:29:33.042Z,62.00
2019-01-06T00:32:22.550Z,61.70
2019-01-06T00:35:19.727Z,61.60
2019-01-06T00:38:05.849Z,61.50
2019-01-06T00:40:44.935Z,61.80
2019-01-06T00:43:30.158Z,62.10
2019-01-06T00:46:16.959Z,62.50
2019-01-06T00:49:03.216Z,62.60
2019-01-06T00:51:53.975Z,62.30
2019-01-06T00:54:38.879Z,63.00
2019-01-06T00:57:39.407Z,62.80
2019-01-06T01:00:17.877Z,62.20
2019-01-06T01:03:05.723Z,62.10
2019-01-06T01:05:53.431Z,62.00
2019-01-06T01:08:46.997Z,61.70
2019-01-06T01:11:37.868Z,61.70
2019-01-06T01:14:27.557Z,62.00
2019-01-06T01:17:14.092Z,61.60
2019-01-06T01:20:05.254Z,61.40
2019-01-06T01:22:47.239Z,61.60
2019-01-06T01:25:34.926Z,61.40
2019-01-06T01:28:26.754Z,61.60
2019-01-06T01:31:13.346Z,61.40
2019-01-06T01:33:59.936Z,61.20
2019-01-06T01:36:47.638Z,61.00
2019-01-06T01:39:35.563Z,61.30
2019-01-06T01:42:16.580Z,61.50
2019-01-06T01:45:02.781Z,61.60
2019-01-06T01:47:49.438Z,61.70
2019-01-06T01:50:38.662Z,61.40
2019-01-06T01:53:24.781Z,61.90
2019-01-06T01:56:12.942Z,61.60
2019-01-06T01:59:01.498Z,62.10
2019-01-06T02:01:48.023Z,62.20
2019-01-06T02:04:34.375Z,61.90
2019-01-06T02:07:37.271Z,61.40
2019-01-06T02:10:25.307Z,61.50
2019-01-06T02:13:11.458Z,61.30
2019-01-06T02:15:57.854Z,61.80
2019-01-06T02:19:00.758Z,61.50
2019-01-06T02:21:50.483Z,61.30
2019-01-06T02:24:32.355Z,61.20
2019-01-06T02:27:16.031Z,60.90
2019-01-06T02:30:08.532Z,60.60
2019-01-06T02:32:55.219Z,60.60
2019-01-06T02:35:45.927Z,61.10
2019-01-06T02:38:42.390Z,60.90
2019-01-06T02:41:26.334Z,60.90
2019-01-06T02:44:23.332Z,60.90
2019-01-06T02:47:03.857Z,60.60
2019-01-06T02:49:49.966Z,60.70
2019-01-06T02:52:45.705Z,60.60
2019-01-06T02:55:32.046Z,60.40
2019-01-06T02:58:25.467Z,60.20
2019-01-06T03:01:20.793Z,61.00
2019-01-06T03:04:09.434Z,61.40
2019-01-06T03:06:53.157Z,61.20
2019-01-06T03:09:39.250Z,60.80
2019-01-06T03:12:32.991Z,60.40
2019-01-06T03:15:19.565Z,60.50
2019-01-06T03:18:05.337Z,60.90
2019-01-06T03:21:07.944Z,60.60
2019-01-06T03:23:54.543Z,60.60
2019-01-06T03:26:48.180Z,61.20
2019-01-06T03:29:40.482Z,60.60
2019-01-06T03:32:21.096Z,60.20
2019-01-06T03:35:07.421Z,60.40
2019-01-06T03:37:52.835Z,60.40
2019-01-06T03:40:50.102Z,60.60
2019-01-06T03:43:36.428Z,60.70
2019-01-06T03:46:22.776Z,60.50
2019-01-06T03:49:08.184Z,60.30
2019-01-06T03:52:02.058Z,60.40
2019-01-06T03:54:48.279Z,60.70
2019-01-06T03:57:34.586Z,60.60
2019-01-06T04:00:16.423Z,60.80
2019-01-06T04:03:02.614Z,60.50
2019-01-06T04:05:56.327Z,62.10
2019-01-06T04:08:45.635Z,61.70
2019-01-06T04:11:29.055Z,61.30
2019-01-06T04:14:20.465Z,60.90
2019-01-06T04:17:00.968Z,61.00
2019-01-06T04:19:47.686Z,61.20
2019-01-06T04:22:34.463Z,61.00
2019-01-06T04:25:20.656Z,60.80
2019-01-06T04:28:11.856Z,61.10
2019-01-06T04:30:58.251Z,61.10
2019-01-06T04:33:44.366Z,61.20
2019-01-06T04:36:35.138Z,61.30
2019-01-06T04:39:28.010Z,61.20
2019-01-06T04:42:16.198Z,61.20
2019-01-06T04:45:13.045Z,61.30
2019-01-06T04:47:59.167Z,61.30
2019-01-06T04:50:45.814Z,61.10
2019-01-06T04:53:32.202Z,61.30
2019-01-06T04:56:28.779Z,61.50
2019-01-06T04:59:14.887Z,61.50
2019-01-06T05:02:09.431Z,61.50
2019-01-06T05:05:04.821Z,61.60
2019-01-06T05:07:49.046Z,62.20
2019-01-06T05:10:45.735Z,61.70
2019-01-06T05:13:42.222Z,61.80
2019-01-06T05:16:31.111Z,62.00
2019-01-06T05:19:19.000Z,61.80
2019-01-06T05:22:06.995Z,61.70
2019-01-06T05:25:01.166Z,61.80
2019-01-06T05:27:47.341Z,61.90
2019-01-06T05:30:33.674Z,61.90
2019-01-06T05:33:22.299Z,61.90
2019-01-06T05:36:10.666Z,61.90
2019-01-06T05:39:08.397Z,61.80
2019-01-06T05:41:54.220Z,61.70
2019-01-06T05:45:00.523Z,61.70
2019-01-06T05:47:44.444Z,61.80
2019-01-06T05:50:26.454Z,61.80
2019-01-06T05:53:16.932Z,61.80
2019-01-06T05:56:10.661Z,61.80
2019-01-06T05:58:57.038Z,61.90
2019-01-06T06:01:43.290Z,61.90
2019-01-06T06:04:29.793Z,61.90
2019-01-06T06:07:20.715Z,62.10
2019-01-06T06:10:07.293Z,62.10
2019-01-06T06:12:53.750Z,62.00
2019-01-06T06:15:51.134Z,62.00
2019-01-06T06:18:47.890Z,62.00
2019-01-06T06:21:34.186Z,62.10
2019-01-06T06:24:37.069Z,62.00
2019-01-06T06:27:24.262Z,62.20
2019-01-06T06:30:21.122Z,62.20
2019-01-06T06:33:17.742Z,62.30
2019-01-06T06:36:04.641Z,62.00
2019-01-06T06:39:04.554Z,62.20
2019-01-06T06:41:45.622Z,62.50
2019-01-06T06:44:25.026Z,62.90
2019-01-06T06:47:11.755Z,62.30
2019-01-06T06:49:58.169Z,62.30
2019-01-06T06:52:51.921Z,62.30
2019-01-06T06:55:45.862Z,62.40
2019-01-06T06:58:33.533Z,62.40
2019-01-06T07:02:20.515Z,62.40
2019-01-06T07:05:04.697Z,62.40
2019-01-06T07:07:51.099Z,62.20
2019-01-06T07:11:05.915Z,62.50
2019-01-06T07:14:02.276Z,62.40
2019-01-06T07:17:22.436Z,62.50
2019-01-06T07:20:10.115Z,62.30
2019-01-06T07:23:09.624Z,62.60
2019-01-06T07:25:55.766Z,62.50
2019-01-06T07:28:43.919Z,62.50
2019-01-06T07:31:35.020Z,62.40
2019-01-06T07:34:39.431Z,62.50
2019-01-06T07:37:39.581Z,62.50
2019-01-06T07:40:33.277Z,62.60
2019-01-06T07:43:30.099Z,62.50
2019-01-06T07:46:16.222Z,62.40
2019-01-06T07:49:12.697Z,62.50
2019-01-06T07:51:51.283Z,62.60
2019-01-06T07:54:37.518Z,62.60
2019-01-06T07:57:43.501Z,62.60
2019-01-06T08:00:29.820Z,62.50
2019-01-06T08:03:20.592Z,62.30
2019-01-06T08:06:11.769Z,62.40
2019-01-06T08:08:57.956Z,62.50
2019-01-06T08:11:44.347Z,62.50
2019-01-06T08:14:30.697Z,62.40
2019-01-06T08:17:21.735Z,63.20
2019-01-06T08:20:08.138Z,62.60
2019-01-06T08:22:55.876Z,62.50
2019-01-06T08:25:43.570Z,62.40
2019-01-06T08:28:29.707Z,62.60
2019-01-06T08:31:17.639Z,62.60
2019-01-06T08:34:04.290Z,62.60
2019-01-06T08:36:51.042Z,62.60
2019-01-06T08:39:38.693Z,62.50
2019-01-06T08:42:39.823Z,62.60
2019-01-06T08:45:25.997Z,62.40
2019-01-06T08:48:12.245Z,62.20
2019-01-06T08:51:08.949Z,62.20
2019-01-06T08:54:01.233Z,62.30
2019-01-06T08:56:58.355Z,62.40
2019-01-06T08:59:44.639Z,62.50
2019-01-06T09:02:32.312Z,62.40
2019-01-06T09:05:28.984Z,62.30
2019-01-06T09:08:22.918Z,62.30
2019-01-06T09:11:12.943Z,62.20
2019-01-06T09:13:54.798Z,62.20
2019-01-06T09:16:47.331Z,62.10
2019-01-06T09:19:34.614Z,62.00
2019-01-06T09:22:28.255Z,62.10
2019-01-06T09:25:15.916Z,61.90
2019-01-06T09:28:03.651Z,61.90
2019-01-06T09:30:49.671Z,61.90
2019-01-06T09:33:36.198Z,61.90
2019-01-06T09:36:27.177Z,62.00
2019-01-06T09:39:13.825Z,62.00
2019-01-06T09:42:04.334Z,61.90
2019-01-06T09:44:58.094Z,61.90
2019-01-06T09:47:48.842Z,61.90
2019-01-06T09:50:35.003Z,61.70
2019-01-06T09:53:15.403Z,61.70
2019-01-06T09:56:01.623Z,61.70
2019-01-06T09:58:48.071Z,61.80
2019-01-06T10:01:42.754Z,61.60
2019-01-06T10:04:25.914Z,62.60
2019-01-06T10:07:24.286Z,61.90
2019-01-06T10:10:10.717Z,61.90
2019-01-06T10:12:58.908Z,61.80
2019-01-06T10:16:02.026Z,61.70
2019-01-06T10:18:51.575Z,61.80
2019-01-06T10:21:42.279Z,61.70
2019-01-06T10:24:32.780Z,61.60
2019-01-06T10:27:19.181Z,61.70
2019-01-06T10:30:05.650Z,61.60
2019-01-06T10:32:52.600Z,61.40
2019-01-06T10:35:44.210Z,61.40
2019-01-06T10:38:30.858Z,61.20
2019-01-06T10:41:28.810Z,61.20
2019-01-06T10:44:12.618Z,61.20
2019-01-06T10:46:53.964Z,61.20
2019-01-06T10:49:41.939Z,61.20
2019-01-06T10:52:35.772Z,61.10
2019-01-06T10:55:26.046Z,61.30
2019-01-06T10:58:19.709Z,61.20
2019-01-06T11:01:06.008Z,61.30
2019-01-06T11:04:08.961Z,61.30
2019-01-06T11:06:55.385Z,61.50
2019-01-06T11:09:38.565Z,61.40
2019-01-06T11:12:29.293Z,61.40
2019-01-06T11:15:15.169Z,61.30
2019-01-06T11:18:01.648Z,61.40
2019-01-06T11:20:53.123Z,61.40
2019-01-06T11:23:59.031Z,61.30
2019-01-06T11:26:45.101Z,61.40
2019-01-06T11:29:47.985Z,61.40
2019-01-06T11:32:34.214Z,61.40
2019-01-06T11:35:34.137Z,61.40
2019-01-06T11:38:22.794Z,61.30
2019-01-06T11:41:10.763Z,61.40
2019-01-06T11:43:56.907Z,61.20
2019-01-06T11:46:57.540Z,61.40
2019-01-06T11:49:43.894Z,61.50
2019-01-06T11:52:46.954Z,61.60
2019-01-06T11:55:43.453Z,61.60
2019-01-06T11:58:33.913Z,61.70
2019-01-06T12:01:24.073Z,61.70
2019-01-06T12:04:16.358Z,61.70
2019-01-06T12:07:15.522Z,61.70
2019-01-06T12:10:09.591Z,61.70
2019-01-06T12:12:55.914Z,61.80
2019-01-06T12:15:43.826Z,61.70
2019-01-06T12:18:31.955Z,61.80
2019-01-06T12:21:18.894Z,61.80
2019-01-06T12:24:05.295Z,61.90
2019-01-06T12:27:08.454Z,61.90
2019-01-06T12:29:54.759Z,62.00
2019-01-06T12:32:42.722Z,62.10
2019-01-06T12:35:31.018Z,62.00
2019-01-06T12:38:19.113Z,61.70
2019-01-06T12:41:05.402Z,61.50
2019-01-06T12:43:52.038Z,61.50
2019-01-06T12:46:38.163Z,61.50
2019-01-06T12:49:38.095Z,61.60
2019-01-06T12:52:24.486Z,61.40
2019-01-06T12:55:04.150Z,61.60
2019-01-06T12:57:50.440Z,61.80
2019-01-06T13:00:53.314Z,61.90
2019-01-06T13:03:39.769Z,61.90
2019-01-06T13:06:30.183Z,62.30
2019-01-06T13:09:23.999Z,61.90
2019-01-06T13:12:15.098Z,61.20
2019-01-06T13:15:01.218Z,60.90
2019-01-06T13:17:52.320Z,60.80
2019-01-06T13:20:52.190Z,60.80
2019-01-06T13:23:52.075Z,61.10
2019-01-06T13:26:48.614Z,60.70
2019-01-06T13:29:35.151Z,60.20
2019-01-06T13:32:36.052Z,59.30
2019-01-06T13:35:22.779Z,57.50
2019-01-06T13:38:28.663Z,54.20
2019-01-06T13:41:26.131Z,54.60
2019-01-06T13:44:12.015Z,56.40
2019-01-06T13:47:05.963Z,57.80
2019-01-06T13:49:52.385Z,58.60
2019-01-06T13:52:38.674Z,59.20
2019-01-06T13:55:25.106Z,59.80
2019-01-06T13:58:18.646Z,59.90
2019-01-06T14:01:05.012Z,59.90
2019-01-06T14:03:52.675Z,59.80
2019-01-06T14:06:39.049Z,60.10
2019-01-06T14:09:29.467Z,60.40
2019-01-06T14:12:10.782Z,60.60
2019-01-06T14:14:51.910Z,60.50
2019-01-06T14:17:38.374Z,60.30
2019-01-06T14:20:32.311Z,60.00
2019-01-06T14:23:17.615Z,60.00
2019-01-06T14:26:10.457Z,59.80
2019-01-06T14:29:01.377Z,59.60
2019-01-06T14:31:55.054Z,59.80
2019-01-06T14:34:46.453Z,60.50
2019-01-06T14:37:33.102Z,60.80
2019-01-06T14:40:21.087Z,61.10
2019-01-06T14:43:07.480Z,61.10
2019-01-06T14:46:02.941Z,61.00
2019-01-06T14:48:49.274Z,61.00
2019-01-06T14:51:37.222Z,61.10
2019-01-06T14:54:23.730Z,60.80
2019-01-06T14:57:11.441Z,61.10
2019-01-06T15:00:02.171Z,61.60
2019-01-06T15:02:47.350Z,61.80
2019-01-06T15:05:33.855Z,61.90
2019-01-06T15:08:21.802Z,61.90
2019-01-06T15:11:08.170Z,61.90
2019-01-06T15:14:01.215Z,62.00
2019-01-06T15:16:50.141Z,62.20
2019-01-06T15:19:43.982Z,62.10
2019-01-06T15:22:34.642Z,62.20
2019-01-06T15:25:14.976Z,62.30
2019-01-06T15:28:21.112Z,62.30
2019-01-06T15:31:07.298Z,62.50
2019-01-06T15:34:12.694Z,62.60
2019-01-06T15:37:07.110Z,62.70
2019-01-06T15:40:04.414Z,62.70
2019-01-06T15:42:51.499Z,62.80
2019-01-06T15:45:37.617Z,62.80
2019-01-06T15:48:23.974Z,62.90
2019-01-06T15:51:07.119Z,62.80
2019-01-06T15:53:55.025Z,62.90
2019-01-06T15:56:41.453Z,62.90
2019-01-06T15:59:36.721Z,62.60
2019-01-06T16:02:27.686Z,62.70
2019-01-06T16:05:33.082Z,62.90
2019-01-06T16:08:29.583Z,62.80
2019-01-06T16:11:20.599Z,62.70
2019-01-06T16:14:05.627Z,62.70
2019-01-06T16:16:51.980Z,62.70
2019-01-06T16:19:38.166Z,62.80
2019-01-06T16:22:37.209Z,62.90
2019-01-06T16:25:31.003Z,62.80
2019-01-06T16:28:19.130Z,63.00
2019-01-06T16:31:09.613Z,62.90
2019-01-06T16:33:53.783Z,63.20
2019-01-06T16:36:44.747Z,63.20
2019-01-06T16:39:41.341Z,63.10
2019-01-06T16:42:44.323Z,62.90
2019-01-06T16:45:30.449Z,63.00
2019-01-06T16:48:16.864Z,62.90
2019-01-06T16:51:10.717Z,63.00
2019-01-06T16:54:07.293Z,62.90
2019-01-06T16:56:53.173Z,62.80
2019-01-06T16:59:39.849Z,62.70
2019-01-06T17:02:25.154Z,62.90
2019-01-06T17:05:30.846Z,62.90
2019-01-06T17:08:16.961Z,62.80
2019-01-06T17:11:11.096Z,62.70
2019-01-06T17:13:58.882Z,62.80
2019-01-06T17:16:45.055Z,63.10
2019-01-06T17:19:27.991Z,62.90
2019-01-06T17:22:14.120Z,62.80
2019-01-06T17:25:00.545Z,62.80
2019-01-06T17:27:54.391Z,62.90
2019-01-06T17:30:44.874Z,63.00
2019-01-06T17:33:24.743Z,62.90
2019-01-06T17:36:13.793Z,63.00
2019-01-06T17:39:13.862Z,63.20
2019-01-06T17:42:03.618Z,63.20
2019-01-06T17:45:09.185Z,63.10
2019-01-06T17:47:55.383Z,63.00
2019-01-06T17:50:48.742Z,63.00
2019-01-06T17:53:39.387Z,63.00
2019-01-06T17:56:42.193Z,63.00
2019-01-06T17:59:35.817Z,63.00
2019-01-06T18:02:29.354Z,62.90
2019-01-06T18:05:23.230Z,62.80
2019-01-06T18:08:09.666Z,62.70
2019-01-06T18:10:56.063Z,62.60
2019-01-06T18:13:46.998Z,62.50
2019-01-06T18:16:47.522Z,63.30
2019-01-06T18:19:30.882Z,62.20
2019-01-06T18:22:19.594Z,62.00
2019-01-06T18:25:09.422Z,62.10
2019-01-06T18:27:56.010Z,62.10
2019-01-06T18:30:45.595Z,62.00
2019-01-06T18:33:45.483Z,62.30
2019-01-06T18:36:31.075Z,62.50
2019-01-06T18:39:18.770Z,62.40
2019-01-06T18:42:04.912Z,62.30
2019-01-06T18:44:55.950Z,62.30
2019-01-06T18:47:42.394Z,62.40
2019-01-06T18:50:28.698Z,62.40
2019-01-06T18:53:31.618Z,62.20
2019-01-06T18:56:13.637Z,62.40
2019-01-06T18:59:11.930Z,62.60
2019-01-06T19:01:59.337Z,62.40
2019-01-06T19:04:45.339Z,62.60
2019-01-06T19:07:38.188Z,62.60
2019-01-06T19:10:44.168Z,62.80
2019-01-06T19:13:30.389Z,62.70
2019-01-06T19:16:19.587Z,62.90
2019-01-06T19:19:05.677Z,62.70
2019-01-06T19:21:51.995Z,62.90
2019-01-06T19:24:38.642Z,62.80
2019-01-06T19:27:24.762Z,62.80
2019-01-06T19:30:25.397Z,62.60
2019-01-06T19:33:11.806Z,62.50
2019-01-06T19:35:55.538Z,62.60
2019-01-06T19:38:48.934Z,62.90
2019-01-06T19:41:45.937Z,62.80
2019-01-06T19:44:36.661Z,62.90
2019-01-06T19:47:23.181Z,62.70
2019-01-06T19:50:02.007Z,62.60
2019-01-06T19:52:40.399Z,62.80
2019-01-06T19:55:33.502Z,62.90
2019-01-06T19:58:32.670Z,62.90
2019-01-06T20:01:18.967Z,62.80
2019-01-06T20:04:09.896Z,62.90
2019-01-06T20:07:12.690Z,62.90
2019-01-06T20:10:03.206Z,62.80
2019-01-06T20:12:49.358Z,62.80
2019-01-06T20:15:35.810Z,62.90
2019-01-06T20:18:21.630Z,62.80
2019-01-06T20:21:14.267Z,62.90
2019-01-06T20:24:04.805Z,62.90
2019-01-06T20:26:51.194Z,62.90
2019-01-06T20:29:38.881Z,62.90
2019-01-06T20:32:18.147Z,62.90
2019-01-06T20:35:12.236Z,62.90
2019-01-06T20:38:07.749Z,62.90
2019-01-06T20:41:13.915Z,62.90
2019-01-06T20:43:58.416Z,63.00
2019-01-06T20:46:44.851Z,62.90
2019-01-06T20:49:44.462Z,62.80
2019-01-06T20:52:41.979Z,62.90
2019-01-06T20:55:26.070Z,62.90
2019-01-06T20:58:13.819Z,62.90
2019-01-06T21:00:59.923Z,63.00
2019-01-06T21:03:46.287Z,62.90
2019-01-06T21:06:37.286Z,62.90
2019-01-06T21:09:41.967Z,63.00
2019-01-06T21:12:30.776Z,63.10
2019-01-06T21:15:33.425Z,63.10
2019-01-06T21:18:19.738Z,63.00
2019-01-06T21:21:06.085Z,63.00
2019-01-06T21:24:06.253Z,63.30
2019-01-06T21:27:03.256Z,63.30
2019-01-06T21:29:45.703Z,63.20
2019-01-06T21:32:36.453Z,63.20
2019-01-06T21:35:23.843Z,63.10
2019-01-06T21:38:24.006Z,63.10
2019-01-06T21:41:10.466Z,63.10
2019-01-06T21:44:16.827Z,63.00
2019-01-06T21:47:09.928Z,63.10
2019-01-06T21:50:02.479Z,63.00
2019-01-06T21:52:56.205Z,63.40
2019-01-06T21:55:42.418Z,63.50
2019-01-06T21:58:37.545Z,63.10
2019-01-06T22:01:33.250Z,63.20
2019-01-06T22:04:20.009Z,63.20
2019-01-06T22:07:02.238Z,63.40
2019-01-06T22:09:49.010Z,63.30
2019-01-06T22:12:55.111Z,63.30
2019-01-06T22:15:36.882Z,63.30
2019-01-06T22:18:27.422Z,63.30
2019-01-06T22:21:09.929Z,63.50
2019-01-06T22:23:56.268Z,63.30
2019-01-06T22:26:59.134Z,63.30
2019-01-06T22:29:45.749Z,63.30
2019-01-06T22:32:32.119Z,63.40
2019-01-06T22:35:18.942Z,63.40
2019-01-06T22:38:09.414Z,63.40
2019-01-06T22:40:51.994Z,63.50
2019-01-06T22:43:39.173Z,63.40
2019-01-06T22:46:26.854Z,63.60
2019-01-06T22:49:09.863Z,63.80
2019-01-06T22:52:00.714Z,63.60
2019-01-06T22:55:00.961Z,63.40
2019-01-06T22:57:47.086Z,63.40
2019-01-06T23:00:34.530Z,63.50
2019-01-06T23:03:34.453Z,63.50
2019-01-06T23:06:31.919Z,63.70
2019-01-06T23:09:18.319Z,63.60
2019-01-06T23:12:05.623Z,63.40
2019-01-06T23:14:52.363Z,63.50
2019-01-06T23:17:39.294Z,63.50
2019-01-06T23:20:35.569Z,63.60
2019-01-06T23:23:20.707Z,63.80
2019-01-06T23:26:14.294Z,63.70
2019-01-06T23:28:54.222Z,63.60
2019-01-06T23:31:47.701Z,63.40
2019-01-06T23:34:30.767Z,63.40
2019-01-06T23:37:17.327Z,63.50
2019-01-06T23:40:04.972Z,63.40
2019-01-06T23:42:56.109Z,63.60
2019-01-06T23:45:44.887Z,63.50
2019-01-06T23:48:31.378Z,63.40
2019-01-06T23:51:27.698Z,63.40
2019-01-06T23:54:27.816Z,63.70
2019-01-06T23:57:21.845Z,63.80
